Time,TemperatureF,DewpointF,PressureIn,WindDirection,WindDirectionDegrees,WindSpeedMPH,WindSpeedGustMPH,Humidity,HourlyPrecipIn,Conditions,Clouds,dailyrainin,SoftwareType,DateUTC
2013-11-05 00:08:00,34.2,28.0,30.57,East,90,4.0,-999.0,77,-99.99,,,0.00,weatherlink.com 1.10,2013-11-05 05:08:00,
2013-11-05 00:23:00,33.6,27.0,30.55,ESE,105,6.0,-999.0,77,-99.99,,,0.00,weatherlink.com 1.10,2013-11-05 05:23:00,
2013-11-05 00:38:00,33.4,27.0,30.55,ESE,103,4.0,-999.0,77,-99.99,,,0.00,weatherlink.com 1.10,2013-11-05 05:38:00,
2013-11-05 00:53:00,33.1,27.0,30.55,East,87,4.0,-999.0,78,-99.99,,,0.00,weatherlink.com 1.10,2013-11-05 05:53:00,
2013-11-05 01:08:00,33.0,27.0,30.55,ESE,107,2.0,-999.0,78,-99.99,,,0.00,weatherlink.com 1.10,2013-11-05 06:08:00,
2013-11-05 01:23:00,32.5,27.0,30.54,East,101,4.0,-999.0,80,-99.99,,,0.00,weatherlink.com 1.10,2013-11-05 06:23:00,
2013-11-05 01:38:00,32.2,27.0,30.54,ESE,107,5.0,-999.0,80,-99.99,,,0.00,weatherlink.com 1.10,2013-11-05 06:38:00,
2013-11-05 01:53:00,32.3,26.0,30.55,ESE,104,5.0,-999.0,79,-99.99,,,0.00,weatherlink.com 1.10,2013-11-05 06:53:00,
2013-11-05 02:08:00,32.2,27.0,30.55,ESE,105,2.0,-999.0,80,-99.99,,,0.00,weatherlink.com 1.10,2013-11-05 07:08:00,
2013-11-05 02:23:00,32.3,26.0,30.55,ESE,107,2.0,-999.0,79,-99.99,,,0.00,weatherlink.com 1.10,2013-11-05 07:23:00,
2013-11-05 02:39:00,32.9,27.0,30.56,ESE,107,0.0,-999.0,78,-99.99,,,0.00,weatherlink.com 1.10,2013-11-05 07:39:00,
2013-11-05 02:53:00,33.2,27.0,30.55,ESE,107,0.0,-999.0,78,-99.99,,,0.00,weatherlink.com 1.10,2013-11-05 07:53:00,
2013-11-05 03:08:00,32.3,26.0,30.56,ESE,107,0.0,-999.0,79,-99.99,,,0.00,weatherlink.com 1.10,2013-11-05 08:08:00,
2013-11-05 03:23:00,31.5,26.0,30.55,ESE,107,4.0,-999.0,81,-99.99,,,0.00,weatherlink.com 1.10,2013-11-05 08:23:00,
2013-11-05 03:38:00,32.1,27.0,30.56,ESE,107,0.0,-999.0,80,-99.99,,,0.00,weatherlink.com 1.10,2013-11-05 08:38:00,
2013-11-05 03:53:00,32.9,27.0,30.55,ESE,106,0.0,-999.0,79,-99.99,,,0.00,weatherlink.com 1.10,2013-11-05 08:53:00,
2013-11-05 04:08:00,33.3,27.0,30.55,ESE,107,4.0,-999.0,78,-99.99,,,0.00,weatherlink.com 1.10,2013-11-05 09:08:00,
2013-11-05 04:23:00,32.9,27.0,30.55,ESE,107,0.0,-999.0,79,-99.99,,,0.00,weatherlink.com 1.10,2013-11-05 09:23:00,
2013-11-05 04:38:00,32.4,27.0,30.55,ESE,107,4.0,-999.0,79,-99.99,,,0.00,weatherlink.com 1.10,2013-11-05 09:38:00,
2013-11-05 04:53:00,32.9,26.0,30.55,ESE,107,2.0,-999.0,77,-99.99,,,0.00,weatherlink.com 1.10,2013-11-05 09:53:00,
2013-11-05 05:08:00,32.9,26.0,30.56,ESE,107,0.0,-999.0,77,-99.99,,,0.00,weatherlink.com 1.10,2013-11-05 10:08:00,
2013-11-05 05:23:00,32.4,27.0,30.56,ESE,107,0.0,-999.0,79,-99.99,,,0.00,weatherlink.com 1.10,2013-11-05 10:23:00,
2013-11-05 05:38:00,32.1,26.0,30.57,ESE,107,1.0,-999.0,79,-99.99,,,0.00,weatherlink.com 1.10,2013-11-05 10:38:00,
2013-11-05 05:53:00,32.4,26.0,30.56,ESE,107,2.0,-999.0,78,-99.99,,,0.00,weatherlink.com 1.10,2013-11-05 10:53:00,
2013-11-05 06:08:00,32.5,26.0,30.57,ESE,107,2.0,-999.0,78,-99.99,,,0.00,weatherlink.com 1.10,2013-11-05 11:08:00,
2013-11-05 06:23:00,31.9,26.0,30.58,ESE,107,0.0,-999.0,78,-99.99,,,0.00,weatherlink.com 1.10,2013-11-05 11:23:00,
2013-11-05 06:38:00,31.4,26.0,30.57,ESE,107,0.0,-999.0,79,-99.99,,,0.00,weatherlink.com 1.10,2013-11-05 11:38:00,
2013-11-05 06:53:00,32.3,26.0,30.57,ESE,107,0.0,-999.0,79,-99.99,,,0.00,weatherlink.com 1.10,2013-11-05 11:53:00,
2013-11-05 07:09:00,32.1,26.0,30.58,ESE,107,1.0,-999.0,78,-99.99,,,0.00,weatherlink.com 1.10,2013-11-05 12:09:00,
2013-11-05 07:23:00,32.1,26.0,30.57,ESE,107,1.0,-999.0,79,-99.99,,,0.00,weatherlink.com 1.10,2013-11-05 12:23:00,
2013-11-05 07:39:00,32.2,26.0,30.58,ESE,107,2.0,-999.0,79,-99.99,,,0.00,weatherlink.com 1.10,2013-11-05 12:39:00,
2013-11-05 07:53:00,34.2,26.0,30.59,ESE,107,2.0,-999.0,73,-99.99,,,0.00,weatherlink.com 1.10,2013-11-05 12:53:00,
2013-11-05 08:09:00,36.8,25.0,30.59,ESE,107,0.0,-999.0,62,-99.99,,,0.00,weatherlink.com 1.10,2013-11-05 13:09:00,
2013-11-05 08:23:00,38.4,21.0,30.59,ESE,107,0.0,-999.0,49,-99.99,,,0.00,weatherlink.com 1.10,2013-11-05 13:23:00,
2013-11-05 08:40:00,39.8,13.0,30.60,ESE,107,0.0,-999.0,34,-99.99,,,0.00,weatherlink.com 1.10,2013-11-05 13:40:00,
2013-11-05 08:54:00,41.3,16.0,30.60,ESE,109,0.0,-999.0,36,-99.99,,,0.00,weatherlink.com 1.10,2013-11-05 13:54:00,
2013-11-05 09:09:00,41.3,26.0,30.60,ESE,109,0.0,-999.0,56,-99.99,,,0.00,weatherlink.com 1.10,2013-11-05 14:09:00,
2013-11-05 09:24:00,40.6,24.0,30.60,ESE,110,0.0,-999.0,53,-99.99,,,0.00,weatherlink.com 1.10,2013-11-05 14:24:00,
2013-11-05 09:39:00,42.3,25.0,30.60,ESE,110,0.0,-999.0,51,-99.99,,,0.00,weatherlink.com 1.10,2013-11-05 14:39:00,
2013-11-05 09:54:00,46.0,20.0,30.60,SE,134,0.0,-999.0,36,-99.99,,,0.00,weatherlink.com 1.10,2013-11-05 14:54:00,
2013-11-05 10:09:00,45.1,26.0,30.60,SE,140,0.0,-999.0,48,-99.99,,,0.00,weatherlink.com 1.10,2013-11-05 15:09:00,
2013-11-05 10:24:00,45.8,27.0,30.60,SE,142,0.0,-999.0,48,-99.99,,,0.00,weatherlink.com 1.10,2013-11-05 15:24:00,
2013-11-05 10:39:00,45.3,28.0,30.60,SE,146,1.0,-999.0,51,-99.99,,,0.00,weatherlink.com 1.10,2013-11-05 15:39:00,
2013-11-05 10:54:00,45.2,28.0,30.60,SW,236,1.0,-999.0,51,-99.99,,,0.00,weatherlink.com 1.10,2013-11-05 15:54:00,
2013-11-05 11:24:00,42.6,28.0,30.59,WSW,238,4.0,-999.0,56,-99.99,,,0.00,weatherlink.com 1.10,2013-11-05 16:24:00,
2013-11-05 11:39:00,42.0,26.0,30.58,WSW,238,5.0,-999.0,53,-99.99,,,0.00,weatherlink.com 1.10,2013-11-05 16:39:00,
2013-11-05 11:54:00,42.5,27.0,30.58,WSW,238,0.0,-999.0,55,-99.99,,,0.00,weatherlink.com 1.10,2013-11-05 16:54:00,
2013-11-05 12:24:00,43.4,22.0,30.58,SSE,161,0.0,-999.0,43,-99.99,,,0.00,weatherlink.com 1.10,2013-11-05 17:24:00,
2013-11-05 12:39:00,43.2,22.0,30.57,SSE,163,1.0,-999.0,43,-99.99,,,0.00,weatherlink.com 1.10,2013-11-05 17:39:00,
2013-11-05 12:54:00,44.2,30.0,30.57,SE,145,0.0,-999.0,59,-99.99,,,0.00,weatherlink.com 1.10,2013-11-05 17:54:00,
2013-11-05 13:09:00,44.3,32.0,30.56,South,173,2.0,-999.0,63,-99.99,,,0.00,weatherlink.com 1.10,2013-11-05 18:09:00,
2013-11-05 13:24:00,45.4,31.0,30.55,South,175,4.0,-999.0,58,-99.99,,,0.00,weatherlink.com 1.10,2013-11-05 18:24:00,
2013-11-05 13:39:00,46.1,33.0,30.55,South,177,1.0,-999.0,61,-99.99,,,0.00,weatherlink.com 1.10,2013-11-05 18:39:00,
2013-11-05 13:54:00,47.2,34.0,30.55,South,177,2.0,-999.0,60,-99.99,,,0.00,weatherlink.com 1.10,2013-11-05 18:54:00,
2013-11-05 14:09:00,48.0,34.0,30.54,South,180,1.0,-999.0,59,-99.99,,,0.00,weatherlink.com 1.10,2013-11-05 19:09:00,
2013-11-05 14:24:00,48.2,35.0,30.54,SSE,157,0.0,-999.0,61,-99.99,,,0.00,weatherlink.com 1.10,2013-11-05 19:24:00,
2013-11-05 14:39:00,50.2,36.0,30.54,East,87,2.0,-999.0,58,-99.99,,,0.00,weatherlink.com 1.10,2013-11-05 19:39:00,
2013-11-05 14:54:00,50.1,37.0,30.54,SSE,148,2.0,-999.0,62,-99.99,,,0.00,weatherlink.com 1.10,2013-11-05 19:54:00,
2013-11-05 15:09:00,49.4,38.0,30.52,SSE,153,4.0,-999.0,65,-99.99,,,0.00,weatherlink.com 1.10,2013-11-05 20:09:00,
2013-11-05 15:24:00,48.8,37.0,30.52,SSE,156,0.0,-999.0,65,-99.99,,,0.00,weatherlink.com 1.10,2013-11-05 20:24:00,
2013-11-05 15:39:00,47.9,38.0,30.53,WSW,245,0.0,-999.0,68,-99.99,,,0.00,weatherlink.com 1.10,2013-11-05 20:39:00,
2013-11-05 15:54:00,47.9,38.0,30.53,WSW,244,0.0,-999.0,69,-99.99,,,0.00,weatherlink.com 1.10,2013-11-05 20:54:00,
2013-11-05 16:09:00,47.6,38.0,30.53,WSW,244,0.0,-999.0,69,-99.99,,,0.00,weatherlink.com 1.10,2013-11-05 21:09:00,
2013-11-05 16:24:00,47.0,39.0,30.52,WSW,244,0.0,-999.0,73,-99.99,,,0.00,weatherlink.com 1.10,2013-11-05 21:24:00,
2013-11-05 16:54:00,47.3,39.0,30.52,WSW,245,0.0,-999.0,72,-99.99,,,0.00,weatherlink.com 1.10,2013-11-05 21:54:00,
2013-11-05 17:09:00,46.2,38.0,30.52,WSW,244,1.0,-999.0,74,-99.99,,,0.00,weatherlink.com 1.10,2013-11-05 22:09:00,
2013-11-05 17:24:00,45.1,39.0,30.52,WSW,244,0.0,-999.0,78,-99.99,,,0.00,weatherlink.com 1.10,2013-11-05 22:24:00,
2013-11-05 17:39:00,43.7,39.0,30.52,WSW,245,0.0,-999.0,83,-99.99,,,0.00,weatherlink.com 1.10,2013-11-05 22:39:00,
2013-11-05 17:54:00,42.8,39.0,30.53,WSW,244,2.0,-999.0,86,-99.99,,,0.00,weatherlink.com 1.10,2013-11-05 22:54:00,
2013-11-05 18:09:00,43.3,41.0,30.53,WSW,245,2.0,-999.0,90,-99.99,,,0.00,weatherlink.com 1.10,2013-11-05 23:09:00,
2013-11-05 18:24:00,44.0,42.0,30.53,WSW,245,0.0,-999.0,91,-99.99,,,0.00,weatherlink.com 1.10,2013-11-05 23:24:00,
2013-11-05 18:39:00,44.2,42.0,30.53,WSW,245,0.0,-999.0,92,-99.99,,,0.00,weatherlink.com 1.10,2013-11-05 23:39:00,
2013-11-05 18:54:00,44.1,42.0,30.54,WSW,245,0.0,-999.0,92,-99.99,,,0.00,weatherlink.com 1.10,2013-11-05 23:54:00,
2013-11-05 19:09:00,44.1,42.0,30.53,WSW,245,1.0,-999.0,93,-99.99,,,0.00,weatherlink.com 1.10,2013-11-06 00:09:00,
2013-11-05 19:24:00,44.1,43.0,30.53,WSW,245,2.0,-999.0,94,-99.99,,,0.00,weatherlink.com 1.10,2013-11-06 00:24:00,
2013-11-05 19:39:00,44.3,43.0,30.53,WSW,246,0.0,-999.0,95,-99.99,,,0.00,weatherlink.com 1.10,2013-11-06 00:39:00,
2013-11-05 19:54:00,44.3,43.0,30.53,WSW,246,2.0,-999.0,96,-99.99,,,0.00,weatherlink.com 1.10,2013-11-06 00:54:00,
2013-11-05 20:09:00,44.1,43.0,30.53,WSW,246,4.0,-999.0,96,-99.99,,,0.00,weatherlink.com 1.10,2013-11-06 01:09:00,
2013-11-05 20:24:00,44.2,43.0,30.53,WSW,246,4.0,-999.0,96,-99.99,,,0.00,weatherlink.com 1.10,2013-11-06 01:24:00,
2013-11-05 20:39:00,43.5,43.0,30.53,WSW,246,3.0,-999.0,96,-99.99,,,0.00,weatherlink.com 1.10,2013-11-06 01:39:00,
2013-11-05 20:54:00,43.4,43.0,30.53,WSW,246,0.0,-999.0,97,-99.99,,,0.00,weatherlink.com 1.10,2013-11-06 01:54:00,
2013-11-05 21:09:00,44.4,44.0,30.52,WSW,246,2.0,-999.0,97,-99.99,,,0.00,weatherlink.com 1.10,2013-11-06 02:09:00,
2013-11-05 21:24:00,45.1,45.0,30.52,WSW,246,2.0,-999.0,98,-99.99,,,0.00,weatherlink.com 1.10,2013-11-06 02:24:00,
2013-11-05 21:39:00,45.0,45.0,30.52,WSW,246,4.0,-999.0,98,-99.99,,,0.00,weatherlink.com 1.10,2013-11-06 02:39:00,
2013-11-05 21:54:00,44.6,44.0,30.52,WSW,246,0.0,-999.0,98,-99.99,,,0.00,weatherlink.com 1.10,2013-11-06 02:54:00,
2013-11-05 22:09:00,44.3,44.0,30.51,WSW,246,0.0,-999.0,98,-99.99,,,0.00,weatherlink.com 1.10,2013-11-06 03:09:00,
2013-11-05 22:24:00,44.3,44.0,30.51,WSW,246,1.0,-999.0,98,-99.99,,,0.01,weatherlink.com 1.10,2013-11-06 03:24:00,
2013-11-05 22:39:00,44.6,44.0,30.51,WSW,246,2.0,-999.0,98,-99.99,,,0.01,weatherlink.com 1.10,2013-11-06 03:39:00,
2013-11-05 22:54:00,44.4,44.0,30.50,WSW,246,0.0,-999.0,98,-99.99,,,0.01,weatherlink.com 1.10,2013-11-06 03:54:00,
2013-11-05 23:09:00,44.6,44.0,30.50,WSW,246,4.0,-999.0,98,-99.99,,,0.02,weatherlink.com 1.10,2013-11-06 04:09:00,
2013-11-05 23:24:00,44.6,44.0,30.50,WSW,246,2.0,-999.0,98,-99.99,,,0.02,weatherlink.com 1.10,2013-11-06 04:24:00,
2013-11-05 23:39:00,44.9,44.0,30.49,WSW,246,4.0,-999.0,98,-99.99,,,0.03,weatherlink.com 1.10,2013-11-06 04:39:00,
2013-11-05 23:54:00,45.6,45.0,30.49,WSW,246,2.0,-999.0,99,-99.99,,,0.03,weatherlink.com 1.10,2013-11-06 04:54:00,